Time;durP1;ratioP1;P1;durP2;ratioP2;P2;SDS_P1;SDS_P2;PMS_P1;PMS_P2;Temp;Humidity;BMP_temperature;BMP_pressure;BME280_temperature;BME280_humidity;BME280_pressure;Samples;Min_cycle;Max_cycle;Signal;HPM_P1;HPM_P2
2020/12/28 00:03:45;;;;;;;8.30;4.13;;;;;;;;;;10441071;28;20278;-69
2020/12/28 00:08:47;;;;;;;9.57;4.60;;;;;;;;;;10448463;28;20194;-72
2020/12/28 00:13:49;;;;;;;10.40;4.53;;;;;;;;;;10438633;28;20283;-72
2020/12/28 00:18:51;;;;;;;8.80;4.50;;;;;;;;;;10446701;28;20195;-72
2020/12/28 00:23:52;;;;;;;10.10;5.00;;;;;;;;;;10432193;28;20283;-72
2020/12/28 00:28:55;;;;;;;9.97;4.73;;;;;;;;;;10438799;28;20715;-74
2020/12/28 00:33:56;;;;;;;11.23;4.57;;;;;;;;;;10440236;28;20711;-74
2020/12/28 00:38:58;;;;;;;11.13;5.20;;;;;;;;;;10454580;28;20660;-73
2020/12/28 00:44:00;;;;;;;10.67;4.97;;;;;;;;;;10457989;28;20277;-73
2020/12/28 00:49:02;;;;;;;10.10;4.87;;;;;;;;;;10455212;28;20196;-73
2020/12/28 00:54:03;;;;;;;13.07;6.57;;;;;;;;;;10455631;28;20270;-74
2020/12/28 00:59:06;;;;;;;9.87;4.97;;;;;;;;;;10442624;28;20215;-73
2020/12/28 01:04:07;;;;;;;11.73;5.53;;;;;;;;;;10426923;28;20217;-73
2020/12/28 01:09:09;;;;;;;10.83;5.13;;;;;;;;;;10432847;28;20193;-73
2020/12/28 01:14:11;;;;;;;15.93;7.03;;;;;;;;;;10439916;28;20227;-73
2020/12/28 01:19:13;;;;;;;26.53;10.90;;;;;;;;;;10449444;28;20197;-74
2020/12/28 01:24:15;;;;;;;12.50;6.10;;;;;;;;;;10438675;28;20725;-74
2020/12/28 01:29:17;;;;;;;11.97;5.40;;;;;;;;;;10442711;28;20275;-73
2020/12/28 01:34:18;;;;;;;15.73;7.30;;;;;;;;;;10449205;28;20270;-73
2020/12/28 01:39:20;;;;;;;9.87;4.63;;;;;;;;;;10435846;28;20213;-70
2020/12/28 01:44:22;;;;;;;11.97;6.33;;;;;;;;;;10450662;28;20231;-71
2020/12/28 01:49:24;;;;;;;9.93;4.83;;;;;;;;;;10434067;28;20276;-70
2020/12/28 01:54:26;;;;;;;9.77;4.63;;;;;;;;;;10439342;28;20266;-71
2020/12/28 01:59:28;;;;;;;14.60;6.43;;;;;;;;;;10440453;28;20275;-72
2020/12/28 02:04:30;;;;;;;10.87;5.50;;;;;;;;;;10450585;28;20217;-70
2020/12/28 02:09:32;;;;;;;11.23;5.30;;;;;;;;;;10448692;28;20204;-71
2020/12/28 02:14:34;;;;;;;10.53;4.70;;;;;;;;;;10444794;28;20945;-70
2020/12/28 02:19:36;;;;;;;21.27;9.67;;;;;;;;;;10445843;28;20284;-69
2020/12/28 02:24:38;;;;;;;9.93;5.03;;;;;;;;;;10466672;28;20296;-71
2020/12/28 02:29:40;;;;;;;13.87;6.07;;;;;;;;;;10465040;28;20235;-71
2020/12/28 02:34:41;;;;;;;13.17;6.27;;;;;;;;;;10439718;28;20556;-70
2020/12/28 02:39:43;;;;;;;10.27;5.20;;;;;;;;;;10474730;28;20200;-72
2020/12/28 02:44:45;;;;;;;11.60;5.27;;;;;;;;;;10434674;28;20263;-71
2020/12/28 02:49:47;;;;;;;10.57;5.33;;;;;;;;;;10434867;28;20704;-70
2020/12/28 02:54:49;;;;;;;9.90;5.07;;;;;;;;;;10435086;28;20221;-70
2020/12/28 02:59:50;;;;;;;10.53;5.20;;;;;;;;;;10445956;28;20548;-70
2020/12/28 03:04:52;;;;;;;9.80;4.70;;;;;;;;;;10450833;28;20448;-70
2020/12/28 03:09:56;;;;;;;11.83;5.60;;;;;;;;;;10444958;28;20238;-70
2020/12/28 03:14:57;;;;;;;9.87;4.20;;;;;;;;;;10442370;28;20305;-70
2020/12/28 03:19:59;;;;;;;8.40;4.10;;;;;;;;;;10451272;28;20223;-70
2020/12/28 03:25:01;;;;;;;10.90;4.70;;;;;;;;;;10462245;28;20632;-70
2020/12/28 03:30:03;;;;;;;11.17;4.53;;;;;;;;;;10437823;28;20200;-71
2020/12/28 03:35:05;;;;;;;10.67;5.00;;;;;;;;;;10423769;28;20260;-71
2020/12/28 03:40:07;;;;;;;9.67;4.90;;;;;;;;;;10466112;28;20304;-70
2020/12/28 03:45:09;;;;;;;10.07;4.73;;;;;;;;;;10442182;28;20498;-70
2020/12/28 03:50:10;;;;;;;10.53;4.73;;;;;;;;;;10467100;28;20182;-70
2020/12/28 03:55:13;;;;;;;11.47;5.10;;;;;;;;;;10449813;28;20639;-71
2020/12/28 04:00:14;;;;;;;11.83;4.90;;;;;;;;;;10444193;28;20624;-71
2020/12/28 04:05:16;;;;;;;9.10;4.43;;;;;;;;;;10447062;28;20256;-70
2020/12/28 04:10:18;;;;;;;10.33;4.80;;;;;;;;;;10453926;28;20184;-70
2020/12/28 04:15:20;;;;;;;9.30;4.77;;;;;;;;;;10465454;28;20208;-71
2020/12/28 04:20:21;;;;;;;8.73;4.27;;;;;;;;;;10449321;28;20549;-71
2020/12/28 04:25:24;;;;;;;8.57;4.10;;;;;;;;;;10455877;28;20217;-71
2020/12/28 04:30:25;;;;;;;9.27;4.43;;;;;;;;;;10421264;28;20190;-71
2020/12/28 04:35:28;;;;;;;10.77;5.17;;;;;;;;;;10436103;28;20232;-71
2020/12/28 04:40:30;;;;;;;10.33;5.10;;;;;;;;;;10456453;28;20220;-71
2020/12/28 04:45:32;;;;;;;8.40;4.30;;;;;;;;;;10446534;28;20216;-71
2020/12/28 04:50:34;;;;;;;11.33;5.30;;;;;;;;;;10453119;28;20215;-69
2020/12/28 04:55:36;;;;;;;9.40;4.57;;;;;;;;;;10441134;28;20311;-72
2020/12/28 05:00:39;;;;;;;9.33;4.33;;;;;;;;;;10438373;28;20217;-70
2020/12/28 05:05:44;;;;;;;9.53;4.73;;;;;;;;;;10440273;28;20223;-71
2020/12/28 05:10:47;;;;;;;11.93;4.67;;;;;;;;;;10469932;28;20261;-71
2020/12/28 05:15:49;;;;;;;6.97;4.00;;;;;;;;;;10454208;28;20223;-73
2020/12/28 05:20:51;;;;;;;7.27;3.37;;;;;;;;;;10459262;28;20663;-74
2020/12/28 05:25:54;;;;;;;4.87;2.27;;;;;;;;;;10452524;28;20206;-74
2020/12/28 05:30:59;;;;;;;6.70;3.10;;;;;;;;;;10444555;28;20300;-74
2020/12/28 05:36:01;;;;;;;9.07;4.10;;;;;;;;;;10425692;28;20236;-72
2020/12/28 05:41:03;;;;;;;7.93;3.70;;;;;;;;;;10475330;28;20205;-72
2020/12/28 05:46:05;;;;;;;8.83;3.80;;;;;;;;;;10435227;28;20231;-73
2020/12/28 05:51:06;;;;;;;7.40;3.47;;;;;;;;;;10460627;28;20609;-73
2020/12/28 05:56:09;;;;;;;8.33;3.60;;;;;;;;;;10432029;28;20315;-72
2020/12/28 06:01:11;;;;;;;8.20;4.30;;;;;;;;;;10473945;28;20208;-73
2020/12/28 06:06:12;;;;;;;7.93;3.67;;;;;;;;;;10446256;28;20212;-71
2020/12/28 06:11:19;;;;;;;8.87;3.57;;;;;;;;;;10449233;28;20190;-72
2020/12/28 06:16:23;;;;;;;10.90;4.00;;;;;;;;;;10444114;28;20221;-73
2020/12/28 06:21:35;;;;;;;8.83;4.20;;;;;;;;;;10423658;28;20205;-73
2020/12/28 06:26:37;;;;;;;10.80;4.97;;;;;;;;;;10428396;28;20312;-73
2020/12/28 06:31:39;;;;;;;10.13;4.80;;;;;;;;;;10426783;28;20181;-72
2020/12/28 06:36:40;;;;;;;8.83;4.53;;;;;;;;;;10446262;28;20209;-73
2020/12/28 06:41:43;;;;;;;13.43;5.20;;;;;;;;;;10457048;28;20201;-73
2020/12/28 06:46:44;;;;;;;10.30;4.93;;;;;;;;;;10441751;28;20597;-73
2020/12/28 06:51:46;;;;;;;7.80;4.27;;;;;;;;;;10447173;28;20281;-72
2020/12/28 06:56:48;;;;;;;8.77;4.67;;;;;;;;;;10458604;28;20224;-73
2020/12/28 07:01:51;;;;;;;10.57;4.80;;;;;;;;;;10451416;28;20703;-73
2020/12/28 07:06:59;;;;;;;8.33;4.00;;;;;;;;;;10446996;28;20209;-72
2020/12/28 07:12:05;;;;;;;9.20;4.47;;;;;;;;;;10470527;28;20201;-73
2020/12/28 07:17:06;;;;;;;10.40;5.20;;;;;;;;;;10426314;28;20656;-72
2020/12/28 07:22:08;;;;;;;8.67;4.30;;;;;;;;;;10441988;28;20397;-73
2020/12/28 07:27:11;;;;;;;10.87;5.53;;;;;;;;;;10446165;28;20320;-72
2020/12/28 07:32:17;;;;;;;10.60;4.77;;;;;;;;;;10444699;28;20181;-74
2020/12/28 07:37:19;;;;;;;9.43;4.40;;;;;;;;;;10451383;28;20239;-73
2020/12/28 07:42:22;;;;;;;11.13;4.43;;;;;;;;;;10462829;28;20688;-73
2020/12/28 07:47:39;;;;;;;8.90;4.33;;;;;;;;;;10472454;28;20654;-72
2020/12/28 07:52:46;;;;;;;10.93;4.40;;;;;;;;;;10428216;28;20231;-73
2020/12/28 07:57:56;;;;;;;8.73;4.20;;;;;;;;;;10443024;28;20300;-70
2020/12/28 08:03:03;;;;;;;9.03;4.03;;;;;;;;;;10451821;28;20588;-74
2020/12/28 08:08:05;;;;;;;10.80;4.43;;;;;;;;;;10429042;28;20227;-73
2020/12/28 08:13:07;;;;;;;10.03;4.43;;;;;;;;;;10428432;28;20301;-73
2020/12/28 08:18:10;;;;;;;8.37;4.47;;;;;;;;;;10441883;28;20557;-73
2020/12/28 08:23:11;;;;;;;8.83;4.33;;;;;;;;;;10437207;28;20217;-73
2020/12/28 08:28:14;;;;;;;8.37;4.07;;;;;;;;;;10455179;28;20192;-73
2020/12/28 08:33:16;;;;;;;10.63;4.40;;;;;;;;;;10415325;28;20214;-71
2020/12/28 08:38:18;;;;;;;9.57;4.40;;;;;;;;;;10442045;28;20190;-72
2020/12/28 08:43:21;;;;;;;8.87;4.50;;;;;;;;;;10453161;28;20213;-73
2020/12/28 08:48:22;;;;;;;9.10;4.13;;;;;;;;;;10453536;28;20688;-73
2020/12/28 08:53:24;;;;;;;8.70;3.93;;;;;;;;;;10456677;28;20236;-73
2020/12/28 08:58:27;;;;;;;7.53;3.50;;;;;;;;;;10427580;28;20205;-72
2020/12/28 09:03:28;;;;;;;8.23;3.77;;;;;;;;;;10440035;28;20245;-73
2020/12/28 09:08:30;;;;;;;8.40;3.70;;;;;;;;;;10430353;28;20556;-73
2020/12/28 09:13:33;;;;;;;10.13;4.23;;;;;;;;;;10448564;28;20204;-74
2020/12/28 09:18:34;;;;;;;11.40;5.67;;;;;;;;;;10436847;28;20235;-73
2020/12/28 09:23:36;;;;;;;7.37;3.70;;;;;;;;;;10428203;28;20290;-73
2020/12/28 09:28:38;;;;;;;7.60;4.30;;;;;;;;;;10438684;28;20216;-74
2020/12/28 09:33:40;;;;;;;8.63;4.30;;;;;;;;;;10432068;28;20692;-73
2020/12/28 09:38:41;;;;;;;8.97;4.13;;;;;;;;;;10462127;28;20383;-72
2020/12/28 09:43:44;;;;;;;10.30;4.20;;;;;;;;;;10435939;28;20220;-71
2020/12/28 09:48:46;;;;;;;10.67;4.20;;;;;;;;;;10436979;28;20194;-72
2020/12/28 09:53:48;;;;;;;10.80;4.60;;;;;;;;;;10442987;28;20207;-73
2020/12/28 09:59:02;;;;;;;10.03;4.63;;;;;;;;;;10448405;28;20213;-72
2020/12/28 10:04:04;;;;;;;11.73;5.10;;;;;;;;;;10452709;28;20235;-73
2020/12/28 10:09:06;;;;;;;11.70;4.90;;;;;;;;;;10435650;28;20189;-72
2020/12/28 10:14:09;;;;;;;9.83;4.33;;;;;;;;;;10461219;28;20623;-75
2020/12/28 10:19:10;;;;;;;11.40;5.53;;;;;;;;;;10442196;28;20272;-74
2020/12/28 10:24:12;;;;;;;10.73;5.20;;;;;;;;;;10454553;28;20217;-75
2020/12/28 10:29:14;;;;;;;10.80;4.80;;;;;;;;;;10445136;28;20196;-74
2020/12/28 10:34:16;;;;;;;9.90;5.10;;;;;;;;;;10419495;28;20214;-74
2020/12/28 10:39:18;;;;;;;11.07;4.37;;;;;;;;;;10455159;28;20194;-73
2020/12/28 10:44:21;;;;;;;8.70;4.53;;;;;;;;;;10446846;28;20707;-74
2020/12/28 10:49:23;;;;;;;13.47;5.00;;;;;;;;;;10431112;28;20641;-74
2020/12/28 10:54:24;;;;;;;10.57;5.40;;;;;;;;;;10438920;28;20247;-73
2020/12/28 10:59:27;;;;;;;9.93;4.90;;;;;;;;;;10443831;28;20211;-73
2020/12/28 11:04:29;;;;;;;12.63;5.63;;;;;;;;;;10454036;28;20217;-74
2020/12/28 11:09:31;;;;;;;15.67;7.70;;;;;;;;;;10466824;28;20193;-75
2020/12/28 11:14:33;;;;;;;11.90;5.57;;;;;;;;;;10457269;28;20212;-76
2020/12/28 11:19:35;;;;;;;10.23;5.10;;;;;;;;;;10485091;28;20552;-73
2020/12/28 11:24:36;;;;;;;11.63;5.80;;;;;;;;;;10490765;28;20285;-74
2020/12/28 11:29:39;;;;;;;10.67;5.20;;;;;;;;;;10483682;28;20289;-76
2020/12/28 11:34:40;;;;;;;11.93;5.63;;;;;;;;;;10459010;28;20633;-73
2020/12/28 11:39:42;;;;;;;11.17;5.77;;;;;;;;;;10457782;28;20229;-76
2020/12/28 11:44:44;;;;;;;11.90;5.33;;;;;;;;;;10449725;28;20264;-74
2020/12/28 11:49:46;;;;;;;10.40;5.40;;;;;;;;;;10439608;28;20261;-75
2020/12/28 11:54:47;;;;;;;11.40;5.70;;;;;;;;;;10443391;28;20236;-76
2020/12/28 11:59:50;;;;;;;9.63;5.20;;;;;;;;;;10453891;28;20287;-75
2020/12/28 12:04:51;;;;;;;12.03;5.60;;;;;;;;;;10444490;28;20220;-73
2020/12/28 12:09:53;;;;;;;13.93;7.33;;;;;;;;;;10449252;28;20193;-75
2020/12/28 12:14:56;;;;;;;16.70;6.60;;;;;;;;;;10433063;28;20543;-75
2020/12/28 12:19:57;;;;;;;14.07;6.57;;;;;;;;;;10426451;28;20298;-75
2020/12/28 12:24:59;;;;;;;9.53;5.23;;;;;;;;;;10454665;28;20269;-76
2020/12/28 12:30:01;;;;;;;13.67;6.07;;;;;;;;;;10459360;28;20275;-76
2020/12/28 12:35:03;;;;;;;14.17;7.13;;;;;;;;;;10446953;28;20205;-73
2020/12/28 12:40:04;;;;;;;13.10;6.07;;;;;;;;;;10438773;28;20220;-75
2020/12/28 12:45:07;;;;;;;11.00;5.60;;;;;;;;;;10438378;28;20300;-75
2020/12/28 12:50:08;;;;;;;11.07;5.60;;;;;;;;;;10440901;28;20253;-74
2020/12/28 12:55:10;;;;;;;10.90;5.60;;;;;;;;;;10453413;28;20783;-74
2020/12/28 13:00:17;;;;;;;12.57;6.27;;;;;;;;;;10449363;28;20189;-74
2020/12/28 13:05:19;;;;;;;11.60;5.37;;;;;;;;;;10438275;28;20227;-74
2020/12/28 13:10:21;;;;;;;12.13;5.80;;;;;;;;;;10463580;28;20267;-74
2020/12/28 13:15:23;;;;;;;11.53;5.87;;;;;;;;;;10432196;28;20665;-74
2020/12/28 13:20:26;;;;;;;12.87;6.20;;;;;;;;;;10452700;28;20208;-75
2020/12/28 13:25:28;;;;;;;12.07;6.27;;;;;;;;;;10449109;28;20224;-75
2020/12/28 13:30:30;;;;;;;14.07;6.50;;;;;;;;;;10442292;28;20193;-77
2020/12/28 13:35:32;;;;;;;14.67;6.53;;;;;;;;;;10440759;28;20204;-75
2020/12/28 13:40:34;;;;;;;11.07;6.13;;;;;;;;;;10461898;28;20192;-76
2020/12/28 13:45:39;;;;;;;10.20;5.03;;;;;;;;;;10463108;28;20684;-75
2020/12/28 13:50:40;;;;;;;11.40;5.33;;;;;;;;;;10453574;28;20422;-75
2020/12/28 13:55:46;;;;;;;10.97;5.47;;;;;;;;;;10449170;28;20216;-75
2020/12/28 14:00:49;;;;;;;9.37;4.90;;;;;;;;;;10440213;28;20201;-78
2020/12/28 14:05:51;;;;;;;9.17;4.20;;;;;;;;;;10461364;28;20212;-74
2020/12/28 14:10:52;;;;;;;9.87;5.03;;;;;;;;;;10451281;28;20251;-76
2020/12/28 14:15:55;;;;;;;8.60;4.40;;;;;;;;;;10451165;28;20255;-74
2020/12/28 14:20:56;;;;;;;9.43;4.27;;;;;;;;;;10440739;28;20475;-74
2020/12/28 14:25:58;;;;;;;9.43;3.80;;;;;;;;;;10437159;28;20215;-74
2020/12/28 14:31:00;;;;;;;7.83;3.40;;;;;;;;;;10432589;28;20225;-74
2020/12/28 14:36:02;;;;;;;7.40;3.10;;;;;;;;;;10424790;28;20205;-75
2020/12/28 14:41:05;;;;;;;6.03;3.03;;;;;;;;;;10426271;28;20266;-74
2020/12/28 14:46:07;;;;;;;5.90;2.60;;;;;;;;;;10475163;28;20212;-75
2020/12/28 14:51:09;;;;;;;7.20;3.00;;;;;;;;;;10418897;28;20212;-74
2020/12/28 14:56:11;;;;;;;7.40;3.03;;;;;;;;;;10453465;28;20240;-72
2020/12/28 15:01:16;;;;;;;6.90;3.10;;;;;;;;;;10449548;28;20190;-73
2020/12/28 15:06:17;;;;;;;7.73;3.60;;;;;;;;;;10448721;28;20213;-74
2020/12/28 15:11:19;;;;;;;6.80;3.33;;;;;;;;;;10437558;28;20261;-74
2020/12/28 15:16:22;;;;;;;6.87;3.47;;;;;;;;;;10447537;28;20217;-74
2020/12/28 15:21:23;;;;;;;8.00;3.60;;;;;;;;;;10448765;28;20670;-75
2020/12/28 15:26:26;;;;;;;6.50;2.97;;;;;;;;;;10466669;28;20258;-73
2020/12/28 15:31:29;;;;;;;7.73;3.47;;;;;;;;;;10453478;28;20201;-75
2020/12/28 15:36:31;;;;;;;5.87;3.17;;;;;;;;;;10466801;28;20232;-75
2020/12/28 15:41:35;;;;;;;6.83;3.10;;;;;;;;;;10458740;28;20688;-75
2020/12/28 15:46:38;;;;;;;5.67;2.63;;;;;;;;;;10457996;28;20251;-75
2020/12/28 15:51:39;;;;;;;6.43;3.23;;;;;;;;;;10448587;28;20181;-75
2020/12/28 15:56:45;;;;;;;8.67;3.10;;;;;;;;;;10444554;28;20221;-74
2020/12/28 16:01:49;;;;;;;4.87;2.43;;;;;;;;;;10439385;28;20622;-74
2020/12/28 16:06:51;;;;;;;7.00;3.00;;;;;;;;;;10443671;28;20212;-74
2020/12/28 16:11:52;;;;;;;5.90;2.87;;;;;;;;;;10428547;28;20198;-74
2020/12/28 16:16:55;;;;;;;6.33;2.90;;;;;;;;;;10432269;28;20271;-74
2020/12/28 16:21:56;;;;;;;4.17;1.87;;;;;;;;;;10447267;28;20308;-74
2020/12/28 16:26:58;;;;;;;7.37;2.90;;;;;;;;;;10452024;28;20243;-75
2020/12/28 16:32:01;;;;;;;5.63;2.40;;;;;;;;;;10453651;28;20184;-74
2020/12/28 16:37:04;;;;;;;6.27;3.13;;;;;;;;;;10435158;28;20727;-75
2020/12/28 16:42:06;;;;;;;5.57;2.70;;;;;;;;;;10446037;28;20603;-74
2020/12/28 16:47:08;;;;;;;5.57;2.97;;;;;;;;;;10459249;28;20224;-74
2020/12/28 16:52:10;;;;;;;5.83;3.10;;;;;;;;;;10427641;28;20284;-75
2020/12/28 16:57:11;;;;;;;5.93;2.93;;;;;;;;;;10452349;28;20213;-74
2020/12/28 17:02:14;;;;;;;5.73;3.00;;;;;;;;;;10441406;28;20200;-75
2020/12/28 17:07:16;;;;;;;6.83;3.50;;;;;;;;;;10462919;28;20223;-74
2020/12/28 17:12:18;;;;;;;9.97;4.57;;;;;;;;;;10437616;28;20604;-74
2020/12/28 17:17:25;;;;;;;6.83;3.30;;;;;;;;;;10435678;28;20225;-74
2020/12/28 17:22:27;;;;;;;7.90;4.10;;;;;;;;;;10421838;28;20259;-74
2020/12/28 17:27:28;;;;;;;3.67;1.70;;;;;;;;;;10416891;28;20193;-74
2020/12/28 17:32:31;;;;;;;6.50;3.20;;;;;;;;;;10443599;28;20193;-74
2020/12/28 17:37:32;;;;;;;5.97;2.60;;;;;;;;;;10424602;28;20205;-71
2020/12/28 17:42:34;;;;;;;5.77;2.57;;;;;;;;;;10425953;28;20247;-74
2020/12/28 17:47:37;;;;;;;7.43;3.30;;;;;;;;;;10438672;28;20196;-75
2020/12/28 17:52:38;;;;;;;5.60;2.77;;;;;;;;;;10440527;28;20205;-74
2020/12/28 17:57:40;;;;;;;4.13;1.90;;;;;;;;;;10440725;28;20201;-74
2020/12/28 18:02:42;;;;;;;5.33;2.57;;;;;;;;;;10441816;28;20208;-74
2020/12/28 18:07:45;;;;;;;3.50;1.27;;;;;;;;;;10446183;28;20276;-75
2020/12/28 18:12:47;;;;;;;3.73;1.60;;;;;;;;;;10462225;28;20200;-75
2020/12/28 18:17:49;;;;;;;4.73;2.00;;;;;;;;;;10428449;28;20187;-75
2020/12/28 18:22:51;;;;;;;5.97;2.63;;;;;;;;;;10414636;28;20217;-74
2020/12/28 18:27:53;;;;;;;6.67;2.40;;;;;;;;;;10424764;28;20621;-71
2020/12/28 18:32:57;;;;;;;5.63;2.50;;;;;;;;;;10448202;28;20208;-73
2020/12/28 18:37:58;;;;;;;4.63;2.00;;;;;;;;;;10446730;28;20608;-74
2020/12/28 18:43:00;;;;;;;4.93;2.27;;;;;;;;;;10441576;28;20224;-73
2020/12/28 18:48:02;;;;;;;6.17;2.10;;;;;;;;;;10433007;28;20246;-71
2020/12/28 18:53:04;;;;;;;5.13;2.17;;;;;;;;;;10444624;28;20238;-73
2020/12/28 18:58:05;;;;;;;6.60;2.40;;;;;;;;;;10466279;28;20626;-74
2020/12/28 19:03:10;;;;;;;6.03;2.50;;;;;;;;;;10467949;28;20216;-74
2020/12/28 19:08:11;;;;;;;4.83;2.20;;;;;;;;;;10453256;28;20275;-73
2020/12/28 19:13:13;;;;;;;5.80;2.27;;;;;;;;;;10457566;28;20209;-74
2020/12/28 19:18:16;;;;;;;1.97;1.00;;;;;;;;;;10452239;28;20181;-73
2020/12/28 19:23:18;;;;;;;6.40;2.00;;;;;;;;;;10456045;28;20747;-74
2020/12/28 19:28:19;;;;;;;3.07;1.40;;;;;;;;;;10454405;28;20662;-73
2020/12/28 19:33:22;;;;;;;5.80;2.10;;;;;;;;;;10454368;28;20205;-74
2020/12/28 19:38:23;;;;;;;3.83;1.70;;;;;;;;;;10446763;28;20286;-74
2020/12/28 19:43:25;;;;;;;3.60;1.63;;;;;;;;;;10451045;28;20303;-74
2020/12/28 19:48:27;;;;;;;3.37;1.70;;;;;;;;;;10440788;28;20271;-74
2020/12/28 19:53:29;;;;;;;2.33;1.03;;;;;;;;;;10469454;28;20278;-73
2020/12/28 19:58:31;;;;;;;2.47;1.43;;;;;;;;;;10451235;28;20258;-73
2020/12/28 20:03:33;;;;;;;3.77;1.73;;;;;;;;;;10465096;28;20213;-72
2020/12/28 20:08:35;;;;;;;1.50;1.20;;;;;;;;;;10443293;28;20277;-73
2020/12/28 20:13:36;;;;;;;2.50;1.23;;;;;;;;;;10444871;28;20295;-74
2020/12/28 20:18:39;;;;;;;2.73;1.20;;;;;;;;;;10449187;28;20739;-74
2020/12/28 20:23:41;;;;;;;2.73;1.40;;;;;;;;;;10435686;28;20222;-74
2020/12/28 20:28:43;;;;;;;4.63;1.87;;;;;;;;;;10455829;28;20186;-75
2020/12/28 20:33:46;;;;;;;5.13;1.83;;;;;;;;;;10430587;28;20225;-73
2020/12/28 20:38:50;;;;;;;4.37;1.70;;;;;;;;;;10425828;28;20281;-73
2020/12/28 20:43:52;;;;;;;6.70;2.40;;;;;;;;;;10462176;28;20277;-75
2020/12/28 20:48:54;;;;;;;14.00;5.77;;;;;;;;;;10459452;28;20619;-74
2020/12/28 20:53:56;;;;;;;6.67;2.43;;;;;;;;;;10451156;28;20201;-73
2020/12/28 20:58:57;;;;;;;10.40;4.10;;;;;;;;;;10425122;28;20278;-73
2020/12/28 21:03:59;;;;;;;6.83;2.40;;;;;;;;;;10440163;28;20333;-74
2020/12/28 21:09:01;;;;;;;7.23;3.10;;;;;;;;;;10441395;28;20202;-73
2020/12/28 21:14:03;;;;;;;4.37;1.90;;;;;;;;;;10441198;28;20284;-72
2020/12/28 21:19:06;;;;;;;10.00;2.60;;;;;;;;;;10438917;28;20288;-74
2020/12/28 21:24:07;;;;;;;10.63;4.30;;;;;;;;;;10447441;28;20212;-74
2020/12/28 21:29:09;;;;;;;8.63;3.80;;;;;;;;;;10439279;28;20228;-73
2020/12/28 21:34:11;;;;;;;21.27;6.03;;;;;;;;;;10431974;28;20236;-74
2020/12/28 21:39:13;;;;;;;20.57;5.77;;;;;;;;;;10447158;28;20185;-73
2020/12/28 21:44:15;;;;;;;11.40;3.87;;;;;;;;;;10441075;28;20213;-74
2020/12/28 21:49:17;;;;;;;8.67;3.63;;;;;;;;;;10433990;28;20281;-73
2020/12/28 21:54:19;;;;;;;8.10;3.50;;;;;;;;;;10431806;28;20284;-74
2020/12/28 21:59:21;;;;;;;7.13;3.00;;;;;;;;;;10446268;28;20236;-74
2020/12/28 22:04:24;;;;;;;6.47;3.03;;;;;;;;;;10463312;28;20232;-72
2020/12/28 22:09:25;;;;;;;3.70;1.57;;;;;;;;;;10440470;28;20216;-73
2020/12/28 22:14:36;;;;;;;6.60;2.60;;;;;;;;;;10452580;28;20767;-73
2020/12/28 22:19:41;;;;;;;4.63;1.70;;;;;;;;;;10455423;28;20216;-72
2020/12/28 22:24:43;;;;;;;6.53;2.80;;;;;;;;;;10447402;28;20282;-73
2020/12/28 22:29:45;;;;;;;7.13;3.40;;;;;;;;;;10456397;28;20195;-73
2020/12/28 22:34:49;;;;;;;6.47;2.77;;;;;;;;;;10445789;28;20232;-73
2020/12/28 22:39:50;;;;;;;3.43;1.40;;;;;;;;;;10438825;28;20250;-74
2020/12/28 22:44:52;;;;;;;6.40;2.70;;;;;;;;;;10453230;28;20266;-74
2020/12/28 22:49:54;;;;;;;6.83;2.77;;;;;;;;;;10461635;28;20199;-74
2020/12/28 22:54:56;;;;;;;3.93;1.70;;;;;;;;;;10434223;28;20672;-73
2020/12/28 22:59:57;;;;;;;8.17;3.27;;;;;;;;;;10457301;28;20201;-74
2020/12/28 23:05:00;;;;;;;5.37;2.17;;;;;;;;;;10451303;28;20228;-74
2020/12/28 23:10:02;;;;;;;4.43;2.00;;;;;;;;;;10466752;28;20267;-73
2020/12/28 23:15:03;;;;;;;6.13;2.30;;;;;;;;;;10442665;28;20219;-73
2020/12/28 23:20:06;;;;;;;5.17;2.47;;;;;;;;;;10445835;28;20672;-74
2020/12/28 23:25:07;;;;;;;6.33;2.60;;;;;;;;;;10427944;28;20716;-75
2020/12/28 23:30:13;;;;;;;5.07;1.90;;;;;;;;;;10433620;28;20185;-74
2020/12/28 23:35:16;;;;;;;5.23;2.30;;;;;;;;;;10431455;28;20300;-74
2020/12/28 23:40:17;;;;;;;4.73;1.50;;;;;;;;;;10457833;28;20280;-74
2020/12/28 23:45:19;;;;;;;3.73;1.90;;;;;;;;;;10439340;28;20214;-73
2020/12/28 23:50:22;;;;;;;0.80;0.67;;;;;;;;;;10437256;28;20211;-73
2020/12/28 23:55:23;;;;;;;1.07;0.80;;;;;;;;;;10445211;28;20243;-74
